Time;durP1;ratioP1;P1;durP2;ratioP2;P2;SDS_P1;SDS_P2;PMS_P1;PMS_P2;Temp;Humidity;BMP_temperature;BMP_pressure;BME280_temperature;BME280_humidity;BME280_pressure;Samples;Min_cycle;Max_cycle;Signal;HPM_P1;HPM_P2
2022/06/29 00:00:59;;;;;;;32.03;23.12;;;;;;;;;;765716;183;918851;-73
2022/06/29 00:03:25;;;;;;;30.83;22.87;;;;;;;;;;758841;184;919291;-72
2022/06/29 00:05:51;;;;;;;31.90;25.70;;;;;;;;;;762860;182;919748;-71
2022/06/29 00:08:17;;;;;;;38.33;24.13;;;;;;;;;;767973;182;919264;-73
2022/06/29 00:10:42;;;;;;;32.30;23.93;;;;;;;;;;763606;182;918735;-74
2022/06/29 00:13:08;;;;;;;29.70;25.83;;;;;;;;;;760647;182;928465;-73
2022/06/29 00:15:34;;;;;;;39.60;23.40;;;;;;;;;;767529;182;919667;-73
2022/06/29 00:18:00;;;;;;;31.87;25.13;;;;;;;;;;763955;183;919538;-74
2022/06/29 00:20:26;;;;;;;29.77;24.20;;;;;;;;;;757778;182;942296;-74
2022/06/29 00:22:52;;;;;;;31.60;25.30;;;;;;;;;;768964;183;916919;-73
2022/06/29 00:25:18;;;;;;;32.47;24.60;;;;;;;;;;763403;182;916030;-75
2022/06/29 00:27:43;;;;;;;33.13;24.47;;;;;;;;;;763195;182;916519;-73
2022/06/29 00:30:09;;;;;;;34.03;23.30;;;;;;;;;;759923;182;1006133;-74
2022/06/29 00:32:35;;;;;;;34.03;23.17;;;;;;;;;;764669;183;918673;-74
2022/06/29 00:35:01;;;;;;;31.43;23.50;;;;;;;;;;764710;182;919496;-74
2022/06/29 00:37:27;;;;;;;29.90;22.53;;;;;;;;;;761021;183;919238;-74
2022/06/29 00:39:53;;;;;;;28.27;24.03;;;;;;;;;;768696;183;918432;-76
2022/06/29 00:42:19;;;;;;;35.17;25.73;;;;;;;;;;763693;182;919459;-76
2022/06/29 00:44:45;;;;;;;33.57;23.70;;;;;;;;;;760924;182;919740;-76
2022/06/29 00:47:11;;;;;;;39.90;28.20;;;;;;;;;;769633;182;918881;-75
2022/06/29 00:49:36;;;;;;;37.63;26.00;;;;;;;;;;759677;183;918942;-76
2022/06/29 00:52:03;;;;;;;38.43;25.10;;;;;;;;;;761961;183;920199;-76
2022/06/29 00:54:29;;;;;;;37.60;26.40;;;;;;;;;;762736;183;918570;-74
2022/06/29 00:56:55;;;;;;;35.00;25.93;;;;;;;;;;767822;180;918729;-74
2022/06/29 00:59:23;;;;;;;39.90;27.20;;;;;;;;;;764889;182;919039;-77
2022/06/29 01:01:47;;;;;;;37.38;26.15;;;;;;;;;;763632;183;919441;-73
2022/06/29 01:04:13;;;;;;;38.70;26.87;;;;;;;;;;767417;182;918267;-75
2022/06/29 01:06:39;;;;;;;39.97;27.70;;;;;;;;;;759764;183;919264;-73
2022/06/29 01:09:04;;;;;;;40.10;29.50;;;;;;;;;;759601;183;919312;-75
2022/06/29 01:11:30;;;;;;;38.73;29.57;;;;;;;;;;764804;182;919595;-73
2022/06/29 01:13:56;;;;;;;35.20;25.73;;;;;;;;;;763985;182;919261;-76
2022/06/29 01:16:22;;;;;;;47.10;29.67;;;;;;;;;;764623;182;918819;-75
2022/06/29 01:18:48;;;;;;;40.37;28.40;;;;;;;;;;765035;182;919290;-71
2022/06/29 01:21:14;;;;;;;50.10;31.10;;;;;;;;;;773584;180;919199;-77
2022/06/29 01:23:39;;;;;;;41.37;30.90;;;;;;;;;;763515;182;920247;-77
2022/06/29 01:26:06;;;;;;;44.83;30.03;;;;;;;;;;758315;183;918958;-73
2022/06/29 01:28:32;;;;;;;46.73;31.77;;;;;;;;;;765669;182;927111;-72
2022/06/29 01:30:57;;;;;;;42.55;31.17;;;;;;;;;;763059;183;919476;-76
2022/06/29 01:33:23;;;;;;;44.57;32.73;;;;;;;;;;763106;183;931510;-75
2022/06/29 01:35:50;;;;;;;41.73;31.87;;;;;;;;;;770647;182;919428;-76
2022/06/29 01:38:15;;;;;;;45.33;33.20;;;;;;;;;;768762;182;919208;-72
2022/06/29 01:40:41;;;;;;;45.42;32.30;;;;;;;;;;755980;183;921156;-74
2022/06/29 01:43:08;;;;;;;42.78;31.60;;;;;;;;;;764726;182;973117;-71
2022/06/29 01:45:34;;;;;;;41.73;29.90;;;;;;;;;;763736;183;923930;-73
2022/06/29 01:47:59;;;;;;;44.90;32.40;;;;;;;;;;756616;183;919435;-74
2022/06/29 01:50:25;;;;;;;42.20;31.27;;;;;;;;;;762541;183;919794;-74
2022/06/29 01:52:51;;;;;;;45.17;31.60;;;;;;;;;;765835;182;919305;-73
2022/06/29 01:55:17;;;;;;;41.20;31.70;;;;;;;;;;763231;182;919592;-73
2022/06/29 01:57:43;;;;;;;42.17;31.73;;;;;;;;;;762981;182;918984;-75
2022/06/29 02:00:09;;;;;;;39.37;32.07;;;;;;;;;;768787;183;919101;-74
2022/06/29 02:02:35;;;;;;;42.93;31.53;;;;;;;;;;758308;183;935106;-74
2022/06/29 02:05:01;;;;;;;47.23;30.73;;;;;;;;;;763251;182;1020417;-74
2022/06/29 02:07:27;;;;;;;45.30;32.10;;;;;;;;;;768777;182;919335;-74
2022/06/29 02:09:53;;;;;;;40.70;31.43;;;;;;;;;;762029;183;919654;-74
2022/06/29 02:12:18;;;;;;;45.60;31.93;;;;;;;;;;760162;183;918561;-75
2022/06/29 02:14:44;;;;;;;42.27;30.63;;;;;;;;;;760198;182;918183;-73
2022/06/29 02:17:11;;;;;;;56.60;33.40;;;;;;;;;;770789;179;1020570;-75
2022/06/29 02:19:36;;;;;;;41.87;30.30;;;;;;;;;;763698;183;919864;-75
2022/06/29 02:22:02;;;;;;;39.40;30.07;;;;;;;;;;763623;183;915329;-75
2022/06/29 02:24:28;;;;;;;37.53;30.33;;;;;;;;;;767684;182;915420;-75
2022/06/29 02:26:54;;;;;;;45.53;31.70;;;;;;;;;;761646;183;915518;-73
2022/06/29 02:29:19;;;;;;;43.77;32.47;;;;;;;;;;760344;182;919795;-74
2022/06/29 02:36:49;;;;;;;43.37;34.17;;;;;;;;;;767802;182;915033;-74
2022/06/29 02:39:15;;;;;;;44.88;32.55;;;;;;;;;;763251;182;916842;-74
2022/06/29 02:41:40;;;;;;;56.67;33.77;;;;;;;;;;767107;182;922113;-74
2022/06/29 02:44:06;;;;;;;60.93;36.83;;;;;;;;;;760702;183;915461;-74
2022/06/29 02:46:33;;;;;;;66.23;38.20;;;;;;;;;;760568;183;916460;-74
2022/06/29 02:48:58;;;;;;;59.93;37.87;;;;;;;;;;762472;182;916373;-74
2022/06/29 02:51:25;;;;;;;58.53;38.57;;;;;;;;;;762023;184;916226;-75
2022/06/29 02:53:50;;;;;;;61.43;37.17;;;;;;;;;;757103;184;916418;-74
2022/06/29 02:56:16;;;;;;;54.30;36.60;;;;;;;;;;763811;180;916464;-75
2022/06/29 02:58:41;;;;;;;54.10;37.80;;;;;;;;;;765697;183;944191;-73
2022/06/29 03:01:07;;;;;;;54.80;35.50;;;;;;;;;;765166;182;916025;-74
2022/06/29 03:03:33;;;;;;;55.07;37.57;;;;;;;;;;763127;183;924270;-75
2022/06/29 03:05:59;;;;;;;48.57;34.33;;;;;;;;;;768398;182;915734;-75
2022/06/29 03:08:25;;;;;;;50.85;36.63;;;;;;;;;;761641;183;915070;-75
2022/06/29 03:10:51;;;;;;;50.57;36.60;;;;;;;;;;763115;183;916676;-76
2022/06/29 03:13:17;;;;;;;50.28;35.00;;;;;;;;;;762212;183;1120807;-73
2022/06/29 03:15:43;;;;;;;60.07;37.47;;;;;;;;;;767120;183;909897;-74
2022/06/29 03:18:09;;;;;;;55.57;38.20;;;;;;;;;;759052;182;916246;-74
2022/06/29 03:20:35;;;;;;;57.72;39.65;;;;;;;;;;765115;182;908323;-76
2022/06/29 03:23:01;;;;;;;58.90;40.10;;;;;;;;;;767148;182;916794;-75
2022/06/29 03:25:27;;;;;;;78.17;41.50;;;;;;;;;;761612;182;914436;-74
2022/06/29 03:27:52;;;;;;;66.57;38.80;;;;;;;;;;762736;182;911094;-74
2022/06/29 03:30:18;;;;;;;66.07;39.47;;;;;;;;;;768303;183;915909;-73
2022/06/29 03:32:44;;;;;;;63.07;38.97;;;;;;;;;;760210;181;915578;-74
2022/06/29 03:35:10;;;;;;;78.53;44.20;;;;;;;;;;764640;182;916186;-74
2022/06/29 03:37:36;;;;;;;73.63;42.40;;;;;;;;;;765976;181;915269;-73
2022/06/29 03:40:02;;;;;;;69.35;42.90;;;;;;;;;;761399;182;921138;-75
2022/06/29 03:42:28;;;;;;;64.23;39.90;;;;;;;;;;760888;182;1029093;-74
2022/06/29 03:44:55;;;;;;;70.70;43.67;;;;;;;;;;763517;182;919083;-76
2022/06/29 03:47:19;;;;;;;70.30;40.63;;;;;;;;;;770019;182;919424;-76
2022/06/29 03:49:45;;;;;;;73.60;43.77;;;;;;;;;;763745;182;921032;-75
2022/06/29 03:52:11;;;;;;;66.43;43.07;;;;;;;;;;762920;182;919137;-73
2022/06/29 03:54:37;;;;;;;67.57;43.40;;;;;;;;;;769806;182;918378;-75
2022/06/29 03:57:03;;;;;;;77.07;42.70;;;;;;;;;;761551;182;939086;-75
2022/06/29 03:59:29;;;;;;;73.57;44.50;;;;;;;;;;765017;183;919457;-75
2022/06/29 04:01:55;;;;;;;70.40;43.57;;;;;;;;;;772345;182;635923;-75
2022/06/29 04:04:20;;;;;;;73.47;42.10;;;;;;;;;;766015;182;671766;-75
2022/06/29 04:06:46;;;;;;;70.77;45.33;;;;;;;;;;766764;180;816103;-76
2022/06/29 04:09:12;;;;;;;70.10;43.33;;;;;;;;;;764304;182;917465;-74
2022/06/29 04:14:10;;;;;;;85.37;46.50;;;;;;;;;;762860;182;917434;-76
2022/06/29 04:16:36;;;;;;;70.53;44.17;;;;;;;;;;768273;182;620058;-77
2022/06/29 04:19:01;;;;;;;72.13;42.97;;;;;;;;;;766347;182;918139;-76
2022/06/29 04:21:27;;;;;;;81.30;49.57;;;;;;;;;;764284;182;919349;-75
2022/06/29 04:23:53;;;;;;;86.30;46.00;;;;;;;;;;761795;183;922985;-78
2022/06/29 04:26:19;;;;;;;84.93;48.30;;;;;;;;;;764866;183;919229;-75
2022/06/29 04:28:45;;;;;;;85.47;45.73;;;;;;;;;;762120;183;918997;-74
2022/06/29 04:31:11;;;;;;;92.37;51.67;;;;;;;;;;761698;183;918943;-76
2022/06/29 04:33:37;;;;;;;89.37;47.80;;;;;;;;;;763085;183;918849;-77
2022/06/29 04:36:03;;;;;;;78.60;45.10;;;;;;;;;;769648;183;918888;-72
2022/06/29 04:38:29;;;;;;;75.73;46.73;;;;;;;;;;765965;182;919006;-74
2022/06/29 04:40:55;;;;;;;81.97;43.17;;;;;;;;;;765043;182;919417;-77
2022/06/29 04:43:20;;;;;;;88.17;48.80;;;;;;;;;;768615;182;919569;-81
2022/06/29 04:48:18;;;;;;;73.97;45.90;;;;;;;;;;761172;182;918697;-73
2022/06/29 04:50:44;;;;;;;71.97;45.17;;;;;;;;;;761581;182;919211;-72
2022/06/29 04:53:10;;;;;;;73.47;45.03;;;;;;;;;;768597;182;918162;-76
2022/06/29 04:55:35;;;;;;;80.03;43.67;;;;;;;;;;762529;182;919197;-75
2022/06/29 04:58:01;;;;;;;85.57;48.47;;;;;;;;;;764210;182;929344;-71
2022/06/29 05:00:27;;;;;;;90.10;48.03;;;;;;;;;;771837;182;878131;-75
2022/06/29 05:02:53;;;;;;;77.73;45.40;;;;;;;;;;766532;182;918630;-73
2022/06/29 05:05:19;;;;;;;84.87;50.10;;;;;;;;;;762799;182;918155;-72
2022/06/29 05:07:47;;;;;;;74.65;45.00;;;;;;;;;;772670;182;678332;-79
2022/06/29 05:10:13;;;;;;;80.20;45.30;;;;;;;;;;763402;183;623445;-74
2022/06/29 05:12:39;;;;;;;81.47;47.23;;;;;;;;;;766048;182;919369;-74
2022/06/29 05:15:06;;;;;;;79.00;47.77;;;;;;;;;;762484;182;928124;-77
2022/06/29 05:17:36;;;;;;;85.20;44.87;;;;;;;;;;767902;182;919000;-74
2022/06/29 05:19:59;;;;;;;73.63;45.20;;;;;;;;;;762349;182;918532;-77
2022/06/29 05:22:25;;;;;;;88.67;47.37;;;;;;;;;;767027;183;712147;-77
2022/06/29 05:24:52;;;;;;;74.60;46.70;;;;;;;;;;771241;182;644501;-77
2022/06/29 05:27:17;;;;;;;75.77;45.57;;;;;;;;;;767332;182;631737;-77
2022/06/29 05:29:42;;;;;;;76.07;45.60;;;;;;;;;;768668;183;613705;-76
2022/06/29 05:32:09;;;;;;;73.23;46.40;;;;;;;;;;762836;183;635457;-74
2022/06/29 05:34:34;;;;;;;72.00;44.83;;;;;;;;;;771594;182;642711;-75
2022/06/29 05:37:00;;;;;;;71.70;46.63;;;;;;;;;;763074;183;630169;-77
2022/06/29 05:39:26;;;;;;;73.93;45.17;;;;;;;;;;763255;182;923764;-74
2022/06/29 05:41:52;;;;;;;82.70;46.57;;;;;;;;;;770723;182;625783;-76
2022/06/29 05:44:18;;;;;;;71.83;45.90;;;;;;;;;;765873;182;918947;-76
2022/06/29 05:46:44;;;;;;;78.60;46.37;;;;;;;;;;765967;182;915831;-75
2022/06/29 05:49:10;;;;;;;75.83;48.70;;;;;;;;;;765679;183;919699;-75
2022/06/29 05:51:35;;;;;;;74.00;46.67;;;;;;;;;;762571;182;919402;-74
2022/06/29 05:54:01;;;;;;;80.13;47.10;;;;;;;;;;767103;183;918637;-75
2022/06/29 05:56:27;;;;;;;71.40;46.43;;;;;;;;;;763861;180;917071;-74
2022/06/29 05:58:53;;;;;;;70.33;46.30;;;;;;;;;;769758;182;918363;-72
2022/06/29 06:01:19;;;;;;;71.10;43.60;;;;;;;;;;766181;183;623303;-77
2022/06/29 06:03:47;;;;;;;66.50;46.00;;;;;;;;;;768051;182;629060;-74
2022/06/29 06:06:13;;;;;;;82.00;46.57;;;;;;;;;;769125;183;641944;-76
2022/06/29 06:08:40;;;;;;;76.77;48.57;;;;;;;;;;767246;181;712652;-75
2022/06/29 06:11:06;;;;;;;68.73;45.57;;;;;;;;;;768789;182;621316;-76
2022/06/29 06:13:32;;;;;;;75.30;46.27;;;;;;;;;;769383;182;918904;-75
2022/06/29 06:15:58;;;;;;;74.70;47.73;;;;;;;;;;767700;182;734172;-73
2022/06/29 06:18:24;;;;;;;66.50;41.27;;;;;;;;;;770929;182;632030;-76
2022/06/29 06:20:50;;;;;;;66.83;42.37;;;;;;;;;;766863;182;920428;-74
2022/06/29 06:23:15;;;;;;;74.57;46.23;;;;;;;;;;768807;182;669008;-73
2022/06/29 06:25:41;;;;;;;70.53;44.07;;;;;;;;;;760836;182;925833;-72
2022/06/29 06:28:07;;;;;;;70.57;46.33;;;;;;;;;;767053;182;919271;-74
2022/06/29 06:30:33;;;;;;;80.62;45.42;;;;;;;;;;763936;183;919879;-74
2022/06/29 06:32:59;;;;;;;70.27;45.80;;;;;;;;;;761307;183;918470;-74
2022/06/29 06:35:25;;;;;;;76.00;46.77;;;;;;;;;;763421;183;919029;-72
2022/06/29 06:37:52;;;;;;;64.30;43.00;;;;;;;;;;771342;182;851924;-75
2022/06/29 06:42:49;;;;;;;66.70;40.67;;;;;;;;;;767773;183;640990;-73
2022/06/29 06:45:15;;;;;;;63.03;43.60;;;;;;;;;;766834;182;625018;-75
2022/06/29 06:47:41;;;;;;;68.27;43.23;;;;;;;;;;771050;182;630571;-74
2022/06/29 06:50:08;;;;;;;58.57;43.17;;;;;;;;;;767517;183;622980;-72
2022/06/29 06:52:33;;;;;;;62.93;40.43;;;;;;;;;;763882;182;919835;-76
2022/06/29 06:54:59;;;;;;;60.90;42.03;;;;;;;;;;770133;183;637803;-75
2022/06/29 06:57:26;;;;;;;56.10;40.53;;;;;;;;;;765706;182;630420;-74
2022/06/29 06:59:53;;;;;;;66.30;45.40;;;;;;;;;;767144;182;636052;-77
2022/06/29 07:02:18;;;;;;;61.67;45.53;;;;;;;;;;766946;183;682139;-73
2022/06/29 07:04:46;;;;;;;63.00;44.10;;;;;;;;;;772337;183;618209;-73
2022/06/29 07:07:11;;;;;;;62.97;42.30;;;;;;;;;;767742;182;635769;-78
2022/06/29 07:09:38;;;;;;;65.33;43.57;;;;;;;;;;766378;182;635069;-73
2022/06/29 07:12:05;;;;;;;67.23;43.40;;;;;;;;;;771032;182;625114;-78
2022/06/29 07:14:30;;;;;;;58.57;41.47;;;;;;;;;;767829;183;627258;-76
2022/06/29 07:16:56;;;;;;;54.80;40.67;;;;;;;;;;766350;182;623540;-77
2022/06/29 07:19:22;;;;;;;56.90;41.35;;;;;;;;;;770588;182;680974;-81
2022/06/29 07:21:48;;;;;;;64.93;43.40;;;;;;;;;;768223;183;659684;-75
2022/06/29 07:24:14;;;;;;;58.73;41.30;;;;;;;;;;757633;184;620702;-73
2022/06/29 07:26:40;;;;;;;60.90;44.10;;;;;;;;;;755561;184;943023;-77
2022/06/29 07:29:06;;;;;;;50.20;39.50;;;;;;;;;;770217;182;815489;-74
2022/06/29 07:31:32;;;;;;;56.87;41.33;;;;;;;;;;767161;182;744199;-75
2022/06/29 07:33:58;;;;;;;52.70;41.90;;;;;;;;;;765414;182;919033;-74
2022/06/29 07:36:25;;;;;;;54.07;41.10;;;;;;;;;;768621;182;918992;-75
2022/06/29 07:38:50;;;;;;;50.50;39.73;;;;;;;;;;765669;183;646479;-75
2022/06/29 07:41:15;;;;;;;51.27;40.30;;;;;;;;;;767104;183;630930;-73
2022/06/29 07:43:41;;;;;;;48.77;38.27;;;;;;;;;;772238;182;683959;-79
2022/06/29 07:46:08;;;;;;;50.57;41.40;;;;;;;;;;765306;183;616830;-74
2022/06/29 07:48:33;;;;;;;48.70;37.83;;;;;;;;;;762033;183;623997;-77
2022/06/29 07:50:59;;;;;;;53.73;40.63;;;;;;;;;;762281;182;930548;-72
2022/06/29 07:53:26;;;;;;;52.33;41.03;;;;;;;;;;769909;183;918925;-71
2022/06/29 07:55:51;;;;;;;50.67;40.07;;;;;;;;;;762468;183;918234;-73
2022/06/29 07:58:17;;;;;;;52.53;41.10;;;;;;;;;;763932;183;920015;-73
2022/06/29 08:00:42;;;;;;;55.97;40.20;;;;;;;;;;769108;182;625822;-74
2022/06/29 08:03:08;;;;;;;46.53;38.80;;;;;;;;;;760686;183;634450;-78
2022/06/29 08:05:34;;;;;;;53.20;41.07;;;;;;;;;;761885;182;919362;-73
2022/06/29 08:08:00;;;;;;;54.63;42.23;;;;;;;;;;769059;181;627924;-71
2022/06/29 08:10:26;;;;;;;58.30;43.57;;;;;;;;;;767572;182;633665;-70
2022/06/29 08:12:52;;;;;;;54.67;41.80;;;;;;;;;;765883;180;640605;-74
2022/06/29 08:15:18;;;;;;;56.70;40.03;;;;;;;;;;766122;182;642848;-71
2022/06/29 08:17:43;;;;;;;58.73;44.13;;;;;;;;;;764709;183;918764;-74
2022/06/29 08:20:10;;;;;;;61.27;44.80;;;;;;;;;;758269;183;633195;-74
2022/06/29 08:22:35;;;;;;;52.10;40.00;;;;;;;;;;763131;183;918357;-72
2022/06/29 08:25:01;;;;;;;53.63;41.03;;;;;;;;;;770856;182;625524;-71
2022/06/29 08:27:27;;;;;;;50.30;42.77;;;;;;;;;;763134;182;918688;-74
2022/06/29 08:29:54;;;;;;;63.03;44.13;;;;;;;;;;766101;181;919410;-72
2022/06/29 08:32:19;;;;;;;52.20;41.23;;;;;;;;;;774197;182;621541;-73
2022/06/29 08:34:45;;;;;;;58.03;43.20;;;;;;;;;;770830;182;617221;-73
2022/06/29 08:37:10;;;;;;;55.07;41.50;;;;;;;;;;768510;182;636014;-74
2022/06/29 08:39:36;;;;;;;59.87;42.00;;;;;;;;;;768265;182;627575;-70
2022/06/29 08:42:04;;;;;;;54.17;43.80;;;;;;;;;;769379;181;627123;-73
2022/06/29 08:44:32;;;;;;;52.90;40.57;;;;;;;;;;757604;184;964596;-72
2022/06/29 08:46:58;;;;;;;58.67;43.70;;;;;;;;;;764730;182;919811;-75
2022/06/29 08:49:24;;;;;;;50.40;42.07;;;;;;;;;;768636;183;919018;-73
2022/06/29 08:51:50;;;;;;;52.67;42.25;;;;;;;;;;765479;182;917523;-72
2022/06/29 08:54:15;;;;;;;57.60;44.70;;;;;;;;;;764818;183;919608;-73
2022/06/29 08:56:42;;;;;;;48.17;41.90;;;;;;;;;;770477;182;633760;-71
2022/06/29 08:59:07;;;;;;;55.17;38.30;;;;;;;;;;770652;182;634255;-75
2022/06/29 09:01:33;;;;;;;48.50;37.83;;;;;;;;;;768305;182;630237;-73
2022/06/29 09:03:59;;;;;;;41.80;34.40;;;;;;;;;;766157;182;637823;-70
2022/06/29 09:06:25;;;;;;;48.90;36.83;;;;;;;;;;772282;182;618080;-72
2022/06/29 09:08:51;;;;;;;44.30;34.20;;;;;;;;;;766773;182;624826;-74
2022/06/29 09:11:25;;;;;;;41.00;36.50;;;;;;;;;;765815;182;918693;-72
2022/06/29 09:13:56;;;;;;;39.80;33.43;;;;;;;;;;771669;182;618409;-72
2022/06/29 09:16:22;;;;;;;41.60;35.97;;;;;;;;;;763443;183;617071;-72
2022/06/29 09:18:48;;;;;;;38.20;32.00;;;;;;;;;;766087;183;918894;-72
2022/06/29 09:21:14;;;;;;;42.33;32.30;;;;;;;;;;762409;182;1264678;-72
2022/06/29 09:23:40;;;;;;;36.23;32.60;;;;;;;;;;769204;183;627629;-74
2022/06/29 09:26:05;;;;;;;38.80;32.37;;;;;;;;;;762270;182;918976;-74
2022/06/29 09:28:33;;;;;;;42.33;33.63;;;;;;;;;;765571;182;638711;-74
2022/06/29 09:30:58;;;;;;;39.90;34.87;;;;;;;;;;766265;182;916370;-70
2022/06/29 09:33:25;;;;;;;39.93;34.13;;;;;;;;;;767151;182;624879;-74
2022/06/29 09:35:56;;;;;;;34.33;30.37;;;;;;;;;;764091;182;919360;-72
2022/06/29 09:38:22;;;;;;;35.47;28.53;;;;;;;;;;767121;182;618249;-72
2022/06/29 09:40:54;;;;;;;40.27;31.50;;;;;;;;;;772607;182;625417;-68
2022/06/29 09:43:20;;;;;;;33.67;29.13;;;;;;;;;;769039;181;916316;-74
2022/06/29 09:45:48;;;;;;;32.77;29.27;;;;;;;;;;763967;182;917849;-71
2022/06/29 09:48:11;;;;;;;33.33;29.57;;;;;;;;;;765644;182;919100;-72
2022/06/29 09:50:37;;;;;;;32.40;29.10;;;;;;;;;;772056;182;617108;-73
2022/06/29 09:53:03;;;;;;;35.27;29.07;;;;;;;;;;766996;182;642369;-70
2022/06/29 09:55:29;;;;;;;32.60;28.57;;;;;;;;;;765274;182;918106;-72
2022/06/29 09:57:55;;;;;;;32.03;28.57;;;;;;;;;;770280;181;915926;-70
2022/06/29 10:02:53;;;;;;;29.93;25.33;;;;;;;;;;768540;180;629030;-73
2022/06/29 10:05:20;;;;;;;27.67;24.73;;;;;;;;;;767161;182;919403;-71
2022/06/29 10:07:44;;;;;;;31.63;24.17;;;;;;;;;;771217;182;615129;-71
2022/06/29 10:10:10;;;;;;;26.70;23.80;;;;;;;;;;763774;182;919818;-71
2022/06/29 10:15:22;;;;;;;25.93;23.10;;;;;;;;;;760287;182;915900;-70
2022/06/29 10:18:00;;;;;;;26.90;23.97;;;;;;;;;;769419;182;614966;-70
2022/06/29 10:20:28;;;;;;;27.33;23.90;;;;;;;;;;762120;183;922041;-71
2022/06/29 10:22:54;;;;;;;24.77;21.50;;;;;;;;;;767359;183;623437;-71
2022/06/29 10:25:27;;;;;;;34.00;22.75;;;;;;;;;;765576;182;914417;-71
2022/06/29 10:28:04;;;;;;;25.50;21.52;;;;;;;;;;770553;182;627896;-73
2022/06/29 10:30:30;;;;;;;24.80;20.63;;;;;;;;;;757887;183;648735;-71
2022/06/29 10:33:12;;;;;;;23.17;20.77;;;;;;;;;;769810;182;617201;-70
2022/06/29 10:35:53;;;;;;;24.48;22.17;;;;;;;;;;753335;183;914160;-72
2022/06/29 10:38:19;;;;;;;24.33;21.73;;;;;;;;;;769157;183;913487;-72
2022/06/29 10:40:45;;;;;;;22.20;19.90;;;;;;;;;;764516;183;918925;-71
2022/06/29 10:43:20;;;;;;;21.50;19.30;;;;;;;;;;764930;182;627883;-71
2022/06/29 10:45:46;;;;;;;22.33;19.90;;;;;;;;;;770151;182;616373;-70
2022/06/29 10:48:12;;;;;;;22.13;19.83;;;;;;;;;;763800;182;919885;-74
2022/06/29 10:50:38;;;;;;;19.30;17.30;;;;;;;;;;764861;182;615286;-71
2022/06/29 10:53:03;;;;;;;19.07;17.03;;;;;;;;;;765205;182;913866;-71
2022/06/29 10:55:29;;;;;;;20.70;18.47;;;;;;;;;;767850;183;614102;-72
2022/06/29 10:57:55;;;;;;;20.50;18.30;;;;;;;;;;759587;182;616370;-72
2022/06/29 11:00:21;;;;;;;20.47;18.27;;;;;;;;;;766523;182;628649;-71
2022/06/29 11:02:47;;;;;;;22.50;17.73;;;;;;;;;;769457;182;913935;-71
2022/06/29 11:05:13;;;;;;;25.00;18.10;;;;;;;;;;763270;182;919406;-71
2022/06/29 11:12:47;;;;;;;18.37;16.57;;;;;;;;;;768892;182;919514;-70
2022/06/29 11:17:46;;;;;;;17.37;15.53;;;;;;;;;;767496;180;628039;-71
2022/06/29 11:20:19;;;;;;;17.40;15.70;;;;;;;;;;766744;182;883021;-70
2022/06/29 11:22:50;;;;;;;20.30;15.50;;;;;;;;;;768456;182;918995;-70
2022/06/29 11:25:16;;;;;;;17.43;15.80;;;;;;;;;;769605;182;919503;-70
2022/06/29 11:27:42;;;;;;;19.67;14.30;;;;;;;;;;765275;183;617389;-70
2022/06/29 11:30:08;;;;;;;15.13;13.53;;;;;;;;;;766880;182;627765;-69
2022/06/29 11:32:39;;;;;;;17.30;15.13;;;;;;;;;;766144;182;1023506;-70
2022/06/29 11:35:06;;;;;;;15.87;13.77;;;;;;;;;;764154;183;920347;-71
2022/06/29 11:37:32;;;;;;;15.97;14.40;;;;;;;;;;767003;182;641941;-71
2022/06/29 11:39:58;;;;;;;17.97;15.60;;;;;;;;;;766785;182;635171;-70
2022/06/29 11:45:04;;;;;;;16.17;14.57;;;;;;;;;;766464;183;634277;-71
2022/06/29 11:47:30;;;;;;;20.73;15.40;;;;;;;;;;763485;182;916162;-69
2022/06/29 11:49:55;;;;;;;15.27;13.70;;;;;;;;;;764760;182;921753;-70
2022/06/29 11:52:21;;;;;;;16.63;15.00;;;;;;;;;;770003;182;631274;-71
2022/06/29 11:54:47;;;;;;;17.63;15.93;;;;;;;;;;763814;183;633928;-69
2022/06/29 11:57:15;;;;;;;14.82;13.43;;;;;;;;;;764487;183;915210;-69
2022/06/29 11:59:40;;;;;;;17.63;15.83;;;;;;;;;;769941;182;625274;-68
2022/06/29 12:02:06;;;;;;;17.17;15.37;;;;;;;;;;768258;182;919389;-70
2022/06/29 12:04:31;;;;;;;20.63;14.87;;;;;;;;;;766164;181;920550;-72
2022/06/29 12:07:02;;;;;;;17.93;15.03;;;;;;;;;;768007;182;636245;-69
2022/06/29 12:09:28;;;;;;;15.67;14.03;;;;;;;;;;771493;182;634090;-69
2022/06/29 12:11:54;;;;;;;18.60;13.43;;;;;;;;;;767473;182;636353;-69
2022/06/29 12:14:20;;;;;;;15.50;13.90;;;;;;;;;;764831;182;918982;-69
2022/06/29 12:16:46;;;;;;;15.10;13.60;;;;;;;;;;772206;182;621386;-69
2022/06/29 12:19:11;;;;;;;15.20;13.77;;;;;;;;;;766175;182;665877;-69
2022/06/29 12:21:37;;;;;;;17.10;13.70;;;;;;;;;;765787;182;626750;-70
2022/06/29 12:24:03;;;;;;;16.27;14.57;;;;;;;;;;766646;182;640498;-69
2022/06/29 12:26:29;;;;;;;14.90;13.30;;;;;;;;;;767985;182;633729;-69
2022/06/29 12:28:56;;;;;;;15.87;14.27;;;;;;;;;;766096;182;631827;-69
2022/06/29 12:31:22;;;;;;;17.40;14.30;;;;;;;;;;766605;180;636817;-69
2022/06/29 12:33:48;;;;;;;15.27;13.73;;;;;;;;;;765901;183;921560;-70
2022/06/29 12:36:13;;;;;;;14.30;12.90;;;;;;;;;;768769;181;614919;-69
2022/06/29 12:38:39;;;;;;;14.40;13.00;;;;;;;;;;766509;182;620493;-70
2022/06/29 12:41:05;;;;;;;16.50;14.27;;;;;;;;;;771747;183;638305;-69
2022/06/29 12:43:31;;;;;;;16.47;14.30;;;;;;;;;;762178;183;645264;-71
2022/06/29 12:45:58;;;;;;;19.60;14.10;;;;;;;;;;764092;183;645993;-70
2022/06/29 12:48:23;;;;;;;15.07;13.40;;;;;;;;;;765353;182;622812;-68
2022/06/29 12:50:49;;;;;;;15.20;13.63;;;;;;;;;;765868;183;615357;-70
2022/06/29 12:53:14;;;;;;;15.87;14.20;;;;;;;;;;758292;183;636023;-67
2022/06/29 12:55:40;;;;;;;13.90;12.60;;;;;;;;;;761567;183;919587;-69
2022/06/29 12:58:06;;;;;;;16.30;13.63;;;;;;;;;;770177;182;621589;-69
2022/06/29 13:00:33;;;;;;;14.70;13.40;;;;;;;;;;766283;182;633967;-71
2022/06/29 13:02:58;;;;;;;18.33;14.33;;;;;;;;;;764945;182;919722;-74
2022/06/29 13:05:24;;;;;;;14.53;13.23;;;;;;;;;;771778;182;636507;-70
2022/06/29 13:07:50;;;;;;;16.50;14.80;;;;;;;;;;766285;182;907051;-70
2022/06/29 13:10:16;;;;;;;15.70;13.60;;;;;;;;;;766328;182;918686;-69
2022/06/29 13:12:41;;;;;;;19.23;14.30;;;;;;;;;;770622;182;615872;-70
2022/06/29 13:15:08;;;;;;;16.60;14.83;;;;;;;;;;766172;182;918988;-70
2022/06/29 13:17:34;;;;;;;15.97;14.33;;;;;;;;;;765409;178;919647;-70
2022/06/29 13:20:00;;;;;;;14.00;12.70;;;;;;;;;;767275;182;920127;-72
2022/06/29 13:22:25;;;;;;;14.23;12.90;;;;;;;;;;770699;181;869230;-70
2022/06/29 13:24:52;;;;;;;15.77;12.60;;;;;;;;;;769949;182;640942;-67
2022/06/29 13:27:17;;;;;;;16.60;12.30;;;;;;;;;;768189;182;650589;-69
2022/06/29 13:29:43;;;;;;;13.73;12.33;;;;;;;;;;772401;182;614646;-70
2022/06/29 13:32:09;;;;;;;13.40;12.10;;;;;;;;;;764632;182;852920;-70
2022/06/29 13:34:35;;;;;;;14.30;13.03;;;;;;;;;;766263;182;919121;-69
2022/06/29 13:37:01;;;;;;;14.50;13.03;;;;;;;;;;769056;182;636928;-72
2022/06/29 13:39:26;;;;;;;15.50;13.50;;;;;;;;;;767138;183;661829;-74
2022/06/29 13:41:52;;;;;;;13.97;12.47;;;;;;;;;;766394;183;919548;-69
2022/06/29 13:44:18;;;;;;;13.23;11.43;;;;;;;;;;768387;182;917589;-68
2022/06/29 13:46:44;;;;;;;13.87;12.23;;;;;;;;;;773583;183;621590;-69
2022/06/29 13:49:10;;;;;;;17.30;12.70;;;;;;;;;;769282;182;627204;-70
2022/06/29 13:51:36;;;;;;;21.60;19.40;;;;;;;;;;769785;182;623779;-74
2022/06/29 13:54:02;;;;;;;15.50;13.63;;;;;;;;;;770296;182;639057;-67
2022/06/29 13:56:28;;;;;;;18.40;15.33;;;;;;;;;;763264;183;613690;-69
2022/06/29 13:58:53;;;;;;;30.03;25.40;;;;;;;;;;766314;182;623354;-69
2022/06/29 14:01:19;;;;;;;16.10;14.50;;;;;;;;;;768801;183;643421;-69
2022/06/29 14:03:45;;;;;;;15.43;13.87;;;;;;;;;;766133;182;939523;-69
2022/06/29 14:06:11;;;;;;;27.10;16.37;;;;;;;;;;760190;182;919489;-69
2022/06/29 14:08:37;;;;;;;16.90;13.37;;;;;;;;;;761323;183;919175;-68
2022/06/29 14:11:02;;;;;;;16.77;14.90;;;;;;;;;;772971;180;917195;-71
2022/06/29 14:13:28;;;;;;;84.20;46.17;;;;;;;;;;761282;182;634294;-74
2022/06/29 14:15:54;;;;;;;35.80;26.10;;;;;;;;;;764130;183;919264;-70
2022/06/29 14:18:20;;;;;;;20.43;18.20;;;;;;;;;;771379;179;616854;-68
2022/06/29 14:20:46;;;;;;;22.97;15.93;;;;;;;;;;767173;183;635077;-69
2022/06/29 14:23:12;;;;;;;19.50;16.20;;;;;;;;;;769082;182;627071;-70
2022/06/29 14:25:38;;;;;;;23.73;21.00;;;;;;;;;;770905;182;628738;-69